createdAt,value
2023-05-21T00:00:22.701Z,2.10
2023-05-21T00:02:49.460Z,2.37
2023-05-21T00:05:18.275Z,2.47
2023-05-21T00:07:45.862Z,2.20
2023-05-21T00:10:12.798Z,2.30
2023-05-21T00:12:40.289Z,2.30
2023-05-21T00:15:08.047Z,1.90
2023-05-21T00:17:36.871Z,2.10
2023-05-21T00:20:07.340Z,2.30
2023-05-21T00:22:34.145Z,1.80
2023-05-21T00:25:00.637Z,2.57
2023-05-21T00:27:27.132Z,2.70
2023-05-21T00:29:53.547Z,2.70
2023-05-21T00:32:20.056Z,2.13
2023-05-21T00:34:47.433Z,2.63
2023-05-21T00:37:15.226Z,2.60
2023-05-21T00:39:41.777Z,2.30
2023-05-21T00:42:08.534Z,2.23
2023-05-21T00:44:35.424Z,2.60
2023-05-21T00:47:02.417Z,2.73
2023-05-21T00:49:29.678Z,2.70
2023-05-21T00:51:56.704Z,2.40
2023-05-21T00:54:24.581Z,2.30
2023-05-21T00:56:51.308Z,2.13
2023-05-21T00:59:17.898Z,2.23
2023-05-21T01:01:45.630Z,2.77
2023-05-21T01:04:13.193Z,2.30
2023-05-21T01:06:39.667Z,3.03
2023-05-21T01:09:07.470Z,2.57
2023-05-21T01:11:50.154Z,2.17
2023-05-21T01:14:18.099Z,2.77
2023-05-21T01:16:48.244Z,2.70
2023-05-21T01:19:18.389Z,2.70
2023-05-21T01:21:47.065Z,2.73
2023-05-21T01:24:15.468Z,2.57
2023-05-21T01:26:44.139Z,2.47
2023-05-21T01:29:14.204Z,2.80
2023-05-21T01:31:50.373Z,2.70
2023-05-21T01:34:22.106Z,3.27
2023-05-21T01:36:57.398Z,2.83
2023-05-21T01:39:29.966Z,2.80
2023-05-21T01:41:57.543Z,3.20
2023-05-21T01:44:26.521Z,3.40
2023-05-21T01:46:55.965Z,3.00
2023-05-21T01:49:23.357Z,2.83
2023-05-21T01:51:50.017Z,2.73
2023-05-21T01:54:16.473Z,2.90
2023-05-21T01:56:43.164Z,2.93
2023-05-21T01:59:10.133Z,3.30
2023-05-21T02:01:36.603Z,2.77
2023-05-21T02:04:03.260Z,3.00
2023-05-21T02:06:32.805Z,3.40
2023-05-21T02:08:59.678Z,2.80
2023-05-21T02:11:26.815Z,3.37
2023-05-21T02:13:54.496Z,2.83
2023-05-21T02:16:22.503Z,3.17
2023-05-21T02:18:53.652Z,3.03
2023-05-21T02:21:20.837Z,2.97
2023-05-21T02:23:47.322Z,2.70
2023-05-21T02:26:13.814Z,2.90
2023-05-21T02:28:40.580Z,2.80
2023-05-21T02:31:07.064Z,3.00
2023-05-21T02:33:33.528Z,3.40
2023-05-21T02:36:00.350Z,3.07
2023-05-21T02:38:26.866Z,3.40
2023-05-21T02:40:53.437Z,2.83
2023-05-21T02:43:20.074Z,3.03
2023-05-21T02:45:46.560Z,3.10
2023-05-21T02:48:13.164Z,3.07
2023-05-21T02:50:40.263Z,3.03
2023-05-21T02:53:07.238Z,3.37
2023-05-21T02:55:33.898Z,3.10
2023-05-21T02:58:00.481Z,2.83
2023-05-21T03:00:27.096Z,3.33
2023-05-21T03:02:53.665Z,3.40
2023-05-21T03:05:20.768Z,2.77
2023-05-21T03:07:47.343Z,2.83
2023-05-21T03:10:13.903Z,3.27
2023-05-21T03:12:40.656Z,3.13
2023-05-21T03:15:07.625Z,3.47
2023-05-21T03:17:34.169Z,3.10
2023-05-21T03:20:00.684Z,3.13
2023-05-21T03:22:27.165Z,3.10
2023-05-21T03:24:53.824Z,3.30
2023-05-21T03:27:20.467Z,3.23
2023-05-21T03:29:47.029Z,3.63
2023-05-21T03:32:14.056Z,3.00
2023-05-21T03:34:41.140Z,3.77
2023-05-21T03:37:07.576Z,2.67
2023-05-21T03:39:35.080Z,3.60
2023-05-21T03:42:01.764Z,3.77
2023-05-21T03:44:28.392Z,3.40
2023-05-21T03:46:54.909Z,3.50
2023-05-21T03:49:21.429Z,3.47
2023-05-21T03:51:47.933Z,3.63
2023-05-21T03:54:14.433Z,3.50
2023-05-21T03:56:41.334Z,3.50
2023-05-21T03:59:07.772Z,3.60
2023-05-21T04:01:34.964Z,3.20
2023-05-21T04:04:02.047Z,3.60
2023-05-21T04:06:30.503Z,3.70
2023-05-21T04:08:56.961Z,3.70
2023-05-21T04:11:23.413Z,3.43
2023-05-21T04:13:50.258Z,3.40
2023-05-21T04:16:19.185Z,3.37
2023-05-21T04:18:46.673Z,3.57
2023-05-21T04:21:13.681Z,3.50
2023-05-21T04:23:40.307Z,3.20
2023-05-21T04:26:07.652Z,3.27
2023-05-21T04:28:35.358Z,2.87
2023-05-21T04:31:02.087Z,3.50
2023-05-21T04:33:28.787Z,2.70
2023-05-21T04:35:55.444Z,3.37
2023-05-21T04:38:21.942Z,3.50
2023-05-21T04:40:51.987Z,3.20
2023-05-21T04:43:25.466Z,3.27
2023-05-21T04:45:54.730Z,3.33
2023-05-21T04:48:26.789Z,3.20
2023-05-21T04:50:56.812Z,3.17
2023-05-21T04:53:23.845Z,3.50
2023-05-21T04:55:50.352Z,4.00
2023-05-21T04:58:20.115Z,3.70
2023-05-21T05:00:46.981Z,2.70
2023-05-21T05:03:14.076Z,3.70
2023-05-21T05:05:40.938Z,3.33
2023-05-21T05:08:07.719Z,3.20
2023-05-21T05:10:34.925Z,3.50
2023-05-21T05:13:01.407Z,3.53
2023-05-21T05:15:27.877Z,3.03
2023-05-21T05:17:54.780Z,3.03
2023-05-21T05:20:21.411Z,3.50
2023-05-21T05:22:47.904Z,3.17
2023-05-21T05:25:14.448Z,3.43
2023-05-21T05:27:41.105Z,3.37
2023-05-21T05:30:08.133Z,3.90
2023-05-21T05:32:34.693Z,3.60
2023-05-21T05:35:02.569Z,3.63
2023-05-21T05:37:29.194Z,3.77
2023-05-21T05:39:55.949Z,3.70
2023-05-21T05:42:22.500Z,3.17
2023-05-21T05:44:48.946Z,3.23
2023-05-21T05:47:16.976Z,3.50
2023-05-21T05:49:43.660Z,3.77
2023-05-21T05:52:10.193Z,3.43
2023-05-21T05:54:36.701Z,3.50
2023-05-21T05:57:03.766Z,3.60
2023-05-21T05:59:30.805Z,3.53
2023-05-21T06:01:57.293Z,3.47
2023-05-21T06:04:23.764Z,3.87
2023-05-21T06:06:50.921Z,4.00
2023-05-21T06:09:17.452Z,4.23
2023-05-21T06:11:43.882Z,3.90
2023-05-21T06:14:10.310Z,4.20
2023-05-21T06:16:37.347Z,3.50
2023-05-21T06:19:04.051Z,3.63
2023-05-21T06:21:30.899Z,4.20
2023-05-21T06:23:57.507Z,4.20
2023-05-21T06:26:24.113Z,3.83
2023-05-21T06:28:50.866Z,3.93
2023-05-21T06:31:17.393Z,3.53
2023-05-21T06:33:44.065Z,3.70
2023-05-21T06:36:10.892Z,3.30
2023-05-21T06:38:37.310Z,4.33
2023-05-21T06:41:04.208Z,3.83
2023-05-21T06:43:30.771Z,3.77
2023-05-21T06:45:57.573Z,3.60
2023-05-21T06:48:24.040Z,3.50
2023-05-21T06:50:50.707Z,3.93
2023-05-21T06:53:17.278Z,3.73
2023-05-21T06:55:45.018Z,4.03
2023-05-21T06:58:11.806Z,3.80
2023-05-21T07:00:38.282Z,3.73
2023-05-21T07:03:05.056Z,3.50
2023-05-21T07:05:31.593Z,3.80
2023-05-21T07:07:58.074Z,4.07
2023-05-21T07:10:24.545Z,3.87
2023-05-21T07:12:51.180Z,3.87
2023-05-21T07:15:17.603Z,3.63
2023-05-21T07:17:44.734Z,3.97
2023-05-21T07:20:12.536Z,4.20
2023-05-21T07:22:39.719Z,3.70
2023-05-21T07:25:06.953Z,4.40
2023-05-21T07:27:33.382Z,3.43
2023-05-21T07:29:59.849Z,3.93
2023-05-21T07:32:28.980Z,3.73
2023-05-21T07:34:56.786Z,4.03
2023-05-21T07:37:23.416Z,3.73
2023-05-21T07:39:50.005Z,4.47
2023-05-21T07:42:16.545Z,3.90
2023-05-21T07:44:43.012Z,4.60
2023-05-21T07:47:09.470Z,3.97
2023-05-21T07:49:36.015Z,3.73
2023-05-21T07:52:02.808Z,3.80
2023-05-21T07:54:29.276Z,3.87
2023-05-21T07:56:55.757Z,4.07
2023-05-21T07:59:22.262Z,4.07
2023-05-21T08:01:48.733Z,4.23
2023-05-21T08:04:15.296Z,4.43
2023-05-21T08:06:41.832Z,4.17
2023-05-21T08:09:08.337Z,4.07
2023-05-21T08:11:34.863Z,4.90
2023-05-21T08:14:01.384Z,4.53
2023-05-21T08:16:27.947Z,4.43
2023-05-21T08:18:54.513Z,4.20
2023-05-21T08:21:21.647Z,4.73
2023-05-21T08:23:48.167Z,4.47
2023-05-21T08:26:16.570Z,4.77
2023-05-21T08:28:43.490Z,4.30
2023-05-21T08:31:10.157Z,4.23
2023-05-21T08:33:39.796Z,3.83
2023-05-21T08:36:07.415Z,3.97
2023-05-21T08:38:34.960Z,4.63
2023-05-21T08:41:01.452Z,4.17
2023-05-21T08:43:28.997Z,4.33
2023-05-21T08:45:57.295Z,4.57
2023-05-21T08:48:24.502Z,4.03
2023-05-21T08:50:55.064Z,4.30
2023-05-21T08:53:28.301Z,3.73
2023-05-21T08:55:56.426Z,3.87
2023-05-21T08:58:23.295Z,4.50
2023-05-21T09:00:49.860Z,4.00
2023-05-21T09:03:16.733Z,4.03
2023-05-21T09:05:44.873Z,3.90
2023-05-21T09:08:27.313Z,4.17
2023-05-21T09:10:53.836Z,3.90
2023-05-21T09:13:21.064Z,4.10
2023-05-21T09:15:48.106Z,3.77
2023-05-21T09:18:15.099Z,3.90
2023-05-21T09:20:41.792Z,3.87
2023-05-21T09:23:16.462Z,3.80
2023-05-21T09:25:47.770Z,3.80
2023-05-21T09:28:15.791Z,3.87
2023-05-21T09:30:52.099Z,3.83
2023-05-21T09:33:26.237Z,3.87
2023-05-21T09:35:52.901Z,3.57
2023-05-21T09:38:22.833Z,3.77
2023-05-21T09:40:49.452Z,4.10
2023-05-21T09:43:16.359Z,4.20
2023-05-21T09:45:57.279Z,3.90
2023-05-21T09:48:38.375Z,4.47
2023-05-21T09:51:19.670Z,3.63
2023-05-21T09:53:52.183Z,3.40
2023-05-21T09:56:26.605Z,3.37
2023-05-21T09:58:57.567Z,3.70
2023-05-21T10:01:25.059Z,3.53
2023-05-21T10:03:58.712Z,3.97
2023-05-21T10:06:31.257Z,3.83
2023-05-21T10:08:59.935Z,3.50
2023-05-21T10:11:30.586Z,3.67
2023-05-21T10:14:09.617Z,3.37
2023-05-21T10:16:37.287Z,3.37
2023-05-21T10:19:05.464Z,3.53
2023-05-21T10:21:33.338Z,3.17
2023-05-21T10:24:02.037Z,3.03
2023-05-21T10:26:29.214Z,3.43
2023-05-21T10:28:57.563Z,4.10
2023-05-21T10:31:26.704Z,3.27
2023-05-21T10:33:56.721Z,3.17
2023-05-21T10:36:31.807Z,3.53
2023-05-21T10:39:00.653Z,3.80
2023-05-21T10:41:28.193Z,3.27
2023-05-21T10:44:25.681Z,3.97
2023-05-21T10:47:16.715Z,3.27
2023-05-21T10:50:03.754Z,3.90
2023-05-21T10:52:57.008Z,3.47
2023-05-21T10:55:47.011Z,4.30
2023-05-21T10:58:37.620Z,4.10
2023-05-21T11:01:05.428Z,3.60
2023-05-21T11:03:35.032Z,3.57
2023-05-21T11:06:06.351Z,4.03
2023-05-21T11:08:37.286Z,4.20
2023-05-21T11:11:04.317Z,3.60
2023-05-21T11:13:49.144Z,4.60
2023-05-21T11:16:16.881Z,4.30
2023-05-21T11:18:43.324Z,3.60
2023-05-21T11:21:17.033Z,3.70
2023-05-21T11:23:53.938Z,3.80
2023-05-21T11:26:22.498Z,3.33
2023-05-21T11:29:10.799Z,4.00
2023-05-21T11:31:40.268Z,3.07
2023-05-21T11:34:29.986Z,3.70
2023-05-21T11:37:18.718Z,2.97
2023-05-21T11:39:45.885Z,2.70
2023-05-21T11:42:12.889Z,3.47
2023-05-21T11:44:49.161Z,3.10
2023-05-21T11:47:18.066Z,3.10
2023-05-21T11:49:46.005Z,3.13
2023-05-21T11:52:13.532Z,3.17
2023-05-21T11:54:46.308Z,3.43
2023-05-21T11:57:17.760Z,3.10
2023-05-21T11:59:45.641Z,3.10
2023-05-21T12:02:16.884Z,2.53
2023-05-21T12:04:46.717Z,2.60
2023-05-21T12:07:15.129Z,3.80
2023-05-21T12:09:45.877Z,3.00
2023-05-21T12:12:14.931Z,3.00
2023-05-21T12:14:47.928Z,4.20
2023-05-21T12:17:19.768Z,4.00
2023-05-21T12:19:47.257Z,3.80
2023-05-21T12:22:16.467Z,4.07
2023-05-21T12:24:46.438Z,4.17
2023-05-21T12:27:13.701Z,4.60
2023-05-21T12:29:42.541Z,3.93
2023-05-21T12:32:13.363Z,4.70
2023-05-21T12:34:45.609Z,3.80
2023-05-21T12:37:22.200Z,3.97
2023-05-21T12:39:50.672Z,2.60
2023-05-21T12:42:17.480Z,2.83
2023-05-21T12:44:47.294Z,2.67
2023-05-21T12:47:14.286Z,2.43
2023-05-21T12:49:42.740Z,2.90
2023-05-21T12:52:12.057Z,2.30
2023-05-21T12:54:40.485Z,2.80
2023-05-21T12:57:14.335Z,3.00
2023-05-21T12:59:59.940Z,2.63
2023-05-21T13:02:34.132Z,2.50
2023-05-21T13:05:02.681Z,2.73
2023-05-21T13:07:30.779Z,2.60
2023-05-21T13:09:58.477Z,2.87
2023-05-21T13:12:29.764Z,2.27
2023-05-21T13:14:57.669Z,3.20
2023-05-21T13:17:25.748Z,2.80
2023-05-21T13:20:08.983Z,3.00
2023-05-21T13:22:39.150Z,2.80
2023-05-21T13:25:07.829Z,2.50
2023-05-21T13:27:34.363Z,2.87
2023-05-21T13:30:01.561Z,2.23
2023-05-21T13:32:28.224Z,2.83
2023-05-21T13:34:54.781Z,2.93
2023-05-21T13:37:21.349Z,3.73
2023-05-21T13:39:47.840Z,2.43
2023-05-21T13:42:14.382Z,2.60
2023-05-21T13:44:40.901Z,2.53
2023-05-21T13:47:07.537Z,2.70
2023-05-21T13:49:34.416Z,2.20
2023-05-21T13:52:00.978Z,2.70
2023-05-21T13:54:28.270Z,2.90
2023-05-21T13:56:55.573Z,2.73
2023-05-21T13:59:22.402Z,3.10
2023-05-21T14:01:49.976Z,2.90
2023-05-21T14:04:17.545Z,2.40
2023-05-21T14:06:44.046Z,2.80
2023-05-21T14:09:10.645Z,2.77
2023-05-21T14:11:38.286Z,2.50
2023-05-21T14:14:04.809Z,2.47
2023-05-21T14:16:31.293Z,3.03
2023-05-21T14:18:58.334Z,2.80
2023-05-21T14:21:25.734Z,2.50
2023-05-21T14:23:52.555Z,2.63
2023-05-21T14:26:19.235Z,2.50
2023-05-21T14:28:45.773Z,2.90
2023-05-21T14:31:12.489Z,2.93
2023-05-21T14:33:39.121Z,2.43
2023-05-21T14:36:06.152Z,2.87
2023-05-21T14:38:32.825Z,3.07
2023-05-21T14:40:59.342Z,3.23
2023-05-21T14:43:25.845Z,2.30
2023-05-21T14:45:52.738Z,2.50
2023-05-21T14:48:22.816Z,3.03
2023-05-21T14:50:53.074Z,3.33
2023-05-21T14:53:19.952Z,2.70
2023-05-21T14:55:46.464Z,2.30
2023-05-21T14:58:13.004Z,2.30
2023-05-21T15:00:39.531Z,2.47
2023-05-21T15:03:06.607Z,2.33
2023-05-21T15:05:33.561Z,2.50
2023-05-21T15:08:00.124Z,2.20
2023-05-21T15:10:28.428Z,2.10
2023-05-21T15:12:54.966Z,2.30
2023-05-21T15:15:21.874Z,2.13
2023-05-21T15:17:49.290Z,2.27
2023-05-21T15:20:16.559Z,2.37
2023-05-21T15:22:43.137Z,2.90
2023-05-21T15:25:10.354Z,2.40
2023-05-21T15:27:37.155Z,2.03
2023-05-21T15:30:04.165Z,2.10
2023-05-21T15:32:31.746Z,2.00
2023-05-21T15:34:58.511Z,2.20
2023-05-21T15:37:25.297Z,2.10
2023-05-21T15:39:53.368Z,2.40
2023-05-21T15:42:19.902Z,3.47
2023-05-21T15:44:46.708Z,2.40
2023-05-21T15:47:13.145Z,2.10
2023-05-21T15:49:39.582Z,1.93
2023-05-21T15:52:16.077Z,2.13
2023-05-21T15:54:42.875Z,2.10
2023-05-21T15:57:09.266Z,2.20
2023-05-21T15:59:35.872Z,2.60
2023-05-21T16:02:02.562Z,2.13
2023-05-21T16:04:29.063Z,2.07
2023-05-21T16:06:55.555Z,2.53
2023-05-21T16:09:22.088Z,2.20
2023-05-21T16:11:48.847Z,2.50
2023-05-21T16:14:15.449Z,2.37
2023-05-21T16:16:42.155Z,2.30
2023-05-21T16:19:08.811Z,2.37
2023-05-21T16:21:35.412Z,2.23
2023-05-21T16:24:03.290Z,2.23
2023-05-21T16:26:30.164Z,1.63
2023-05-21T16:28:56.631Z,2.17
2023-05-21T16:31:23.533Z,2.20
2023-05-21T16:33:50.140Z,2.23
2023-05-21T16:36:17.972Z,2.53
2023-05-21T16:38:44.835Z,1.80
2023-05-21T16:41:11.530Z,1.93
2023-05-21T16:43:38.002Z,2.13
2023-05-21T16:46:04.658Z,2.53
2023-05-21T16:48:32.675Z,2.33
2023-05-21T16:50:59.751Z,2.27
2023-05-21T16:53:27.660Z,2.30
2023-05-21T16:55:54.322Z,2.47
2023-05-21T16:58:20.798Z,1.80
2023-05-21T17:00:47.439Z,2.63
2023-05-21T17:03:14.060Z,2.27
2023-05-21T17:05:40.708Z,2.17
2023-05-21T17:08:08.599Z,2.90
2023-05-21T17:10:35.345Z,2.37
2023-05-21T17:13:13.612Z,2.83
2023-05-21T17:15:47.895Z,2.23
2023-05-21T17:18:14.510Z,2.30
2023-05-21T17:20:41.176Z,2.10
2023-05-21T17:23:07.736Z,2.27
2023-05-21T17:25:34.641Z,2.40
2023-05-21T17:28:01.492Z,2.50
2023-05-21T17:30:28.053Z,2.50
2023-05-21T17:32:54.873Z,2.67
2023-05-21T17:35:21.305Z,2.57
2023-05-21T17:37:48.087Z,2.33
2023-05-21T17:40:14.624Z,3.00
2023-05-21T17:42:41.051Z,2.50
2023-05-21T17:45:07.984Z,2.63
2023-05-21T17:47:34.600Z,2.70
2023-05-21T17:50:01.524Z,2.57
2023-05-21T17:52:31.229Z,2.63
2023-05-21T17:54:57.733Z,2.40
2023-05-21T17:57:24.531Z,2.00
2023-05-21T17:59:52.140Z,2.10
2023-05-21T18:02:18.649Z,2.40
2023-05-21T18:04:45.153Z,2.23
2023-05-21T18:07:11.689Z,2.43
2023-05-21T18:09:38.207Z,2.23
2023-05-21T18:12:05.763Z,2.37
2023-05-21T18:14:32.376Z,2.70
2023-05-21T18:16:59.637Z,1.93
2023-05-21T18:19:26.897Z,2.73
2023-05-21T18:21:53.355Z,2.90
2023-05-21T18:24:19.980Z,2.50
2023-05-21T18:26:46.769Z,2.53
2023-05-21T18:29:14.223Z,3.13
2023-05-21T18:31:40.901Z,2.47
2023-05-21T18:34:09.658Z,2.93
2023-05-21T18:36:38.768Z,2.40
2023-05-21T18:39:07.105Z,2.60
2023-05-21T18:41:33.957Z,2.70
2023-05-21T18:44:03.533Z,2.97
2023-05-21T18:46:30.137Z,2.50
2023-05-21T18:48:56.964Z,2.93
2023-05-21T18:51:23.689Z,2.43
2023-05-21T18:53:50.166Z,2.60
2023-05-21T18:56:16.852Z,2.77
2023-05-21T18:58:43.340Z,2.50
2023-05-21T19:01:10.175Z,2.83
2023-05-21T19:03:38.399Z,2.70
2023-05-21T19:06:05.085Z,2.73
2023-05-21T19:08:31.517Z,2.93
2023-05-21T19:10:57.969Z,2.80
2023-05-21T19:13:24.611Z,2.73
2023-05-21T19:15:51.278Z,3.07
2023-05-21T19:18:17.812Z,3.07
2023-05-21T19:20:44.537Z,3.20
2023-05-21T19:23:11.086Z,2.90
2023-05-21T19:25:38.401Z,3.40
2023-05-21T19:28:04.988Z,3.10
2023-05-21T19:30:33.666Z,3.30
2023-05-21T19:33:00.229Z,3.93
2023-05-21T19:35:26.790Z,3.20
2023-05-21T19:37:54.844Z,3.10
2023-05-21T19:40:22.687Z,2.97
2023-05-21T19:42:49.150Z,3.50
2023-05-21T19:45:15.740Z,3.57
2023-05-21T19:47:43.287Z,3.13
2023-05-21T19:50:10.639Z,3.27
2023-05-21T19:52:38.174Z,3.47
2023-05-21T19:55:06.308Z,3.17
2023-05-21T19:57:32.845Z,2.97
2023-05-21T19:59:59.493Z,3.40
2023-05-21T20:02:28.525Z,3.63
2023-05-21T20:04:56.911Z,4.17
2023-05-21T20:07:23.948Z,3.80
2023-05-21T20:09:50.626Z,3.43
2023-05-21T20:12:17.110Z,3.77
2023-05-21T20:14:46.741Z,3.33
2023-05-21T20:17:14.390Z,3.20
2023-05-21T20:19:41.121Z,3.30
2023-05-21T20:22:07.679Z,3.43
2023-05-21T20:24:34.236Z,3.17
2023-05-21T20:27:01.803Z,3.57
2023-05-21T20:29:28.882Z,3.00
2023-05-21T20:31:55.606Z,3.77
2023-05-21T20:34:22.245Z,3.77
2023-05-21T20:36:49.385Z,3.97
2023-05-21T20:39:16.128Z,4.37
2023-05-21T20:41:44.835Z,3.23
2023-05-21T20:44:13.653Z,3.53
2023-05-21T20:46:40.130Z,3.53
2023-05-21T20:49:07.526Z,4.07
2023-05-21T20:51:33.957Z,3.80
2023-05-21T20:54:00.415Z,3.80
2023-05-21T20:56:41.630Z,3.60
2023-05-21T20:59:10.850Z,4.00
2023-05-21T21:01:38.563Z,4.33
2023-05-21T21:04:05.260Z,4.50
2023-05-21T21:06:32.015Z,4.07
2023-05-21T21:08:58.789Z,4.10
2023-05-21T21:11:26.609Z,3.60
2023-05-21T21:13:53.126Z,3.73
2023-05-21T21:16:19.623Z,3.73
2023-05-21T21:18:47.159Z,4.50
2023-05-21T21:21:14.060Z,4.50
2023-05-21T21:23:40.764Z,3.50
2023-05-21T21:26:07.263Z,3.50
2023-05-21T21:28:33.964Z,3.23
2023-05-21T21:31:00.803Z,3.60
2023-05-21T21:33:28.425Z,4.60
2023-05-21T21:35:55.198Z,3.60
2023-05-21T21:38:21.697Z,3.70
2023-05-21T21:40:48.284Z,4.37
2023-05-21T21:43:14.737Z,3.73
2023-05-21T21:45:41.293Z,4.30
2023-05-21T21:48:07.896Z,4.40
2023-05-21T21:50:34.376Z,3.50
2023-05-21T21:53:01.214Z,4.23
2023-05-21T21:55:29.516Z,4.57
2023-05-21T21:57:56.058Z,4.67
2023-05-21T22:00:26.587Z,4.93
2023-05-21T22:02:53.932Z,5.20
2023-05-21T22:05:20.493Z,4.63
2023-05-21T22:07:47.123Z,4.20
2023-05-21T22:10:17.833Z,4.23
2023-05-21T22:12:44.792Z,4.07
2023-05-21T22:15:25.196Z,4.10
2023-05-21T22:17:52.061Z,3.90
2023-05-21T22:20:19.181Z,4.10
2023-05-21T22:22:46.182Z,4.40
2023-05-21T22:25:12.731Z,4.27
2023-05-21T22:27:40.154Z,5.00
2023-05-21T22:30:07.178Z,4.10
2023-05-21T22:32:33.652Z,4.50
2023-05-21T22:35:00.198Z,3.83
2023-05-21T22:37:27.345Z,3.83
2023-05-21T22:39:53.773Z,4.27
2023-05-21T22:42:20.420Z,4.20
2023-05-21T22:44:47.019Z,4.40
2023-05-21T22:47:13.973Z,4.20
2023-05-21T22:49:40.740Z,4.30
2023-05-21T22:52:09.417Z,4.70
2023-05-21T22:54:36.163Z,4.23
2023-05-21T22:57:03.192Z,4.77
2023-05-21T22:59:29.760Z,4.90
2023-05-21T23:01:56.363Z,5.10
2023-05-21T23:04:32.363Z,4.70
2023-05-21T23:07:06.620Z,4.73
2023-05-21T23:09:33.092Z,5.03
2023-05-21T23:11:59.559Z,4.33
2023-05-21T23:14:25.976Z,5.70
2023-05-21T23:16:53.906Z,4.50
2023-05-21T23:19:21.290Z,4.43
2023-05-21T23:21:47.791Z,4.97
2023-05-21T23:24:14.228Z,4.40
2023-05-21T23:26:40.846Z,4.87
2023-05-21T23:29:07.400Z,4.60
2023-05-21T23:31:33.933Z,4.50
2023-05-21T23:34:02.718Z,4.43
2023-05-21T23:36:29.174Z,4.17
2023-05-21T23:38:55.647Z,4.73
2023-05-21T23:41:23.350Z,4.63
2023-05-21T23:43:50.398Z,4.67
2023-05-21T23:46:17.024Z,4.40
2023-05-21T23:48:43.568Z,4.60
2023-05-21T23:51:10.212Z,4.43
2023-05-21T23:53:36.699Z,4.60
2023-05-21T23:56:03.232Z,4.50
2023-05-21T23:58:29.671Z,4.57
